createdAt,value
2017-09-06T00:00:22.747Z,1005.8
2017-09-06T00:01:24.141Z,1005.8
2017-09-06T00:02:25.522Z,1005.8
2017-09-06T00:03:27.003Z,1005.7
2017-09-06T00:04:28.416Z,1005.7
2017-09-06T00:05:29.779Z,1005.7
2017-09-06T00:06:31.551Z,1005.7
2017-09-06T00:07:33.324Z,1005.6
2017-09-06T00:08:35.325Z,1005.7
2017-09-06T00:09:36.980Z,1005.6
2017-09-06T00:10:38.584Z,1005.6
2017-09-06T00:11:40.242Z,1005.6
2017-09-06T00:12:41.691Z,1005.6
2017-09-06T00:13:43.074Z,1005.6
2017-09-06T00:14:44.447Z,1005.6
2017-09-06T00:15:45.862Z,1005.6
2017-09-06T00:16:47.241Z,1005.6
2017-09-06T00:17:48.656Z,1005.6
2017-09-06T00:18:50.037Z,1005.6
2017-09-06T00:19:51.409Z,1005.6
2017-09-06T00:20:52.788Z,1005.6
2017-09-06T00:21:54.167Z,1005.6
2017-09-06T00:22:55.550Z,1005.5
2017-09-06T00:23:56.936Z,1005.5
2017-09-06T00:24:58.326Z,1005.5
2017-09-06T00:25:59.705Z,1005.5
2017-09-06T00:27:01.134Z,1005.5
2017-09-06T00:28:02.587Z,1005.5
2017-09-06T00:29:04.044Z,1005.5
2017-09-06T00:30:05.430Z,1005.5
2017-09-06T00:31:06.820Z,1005.5
2017-09-06T00:32:08.374Z,1005.4
2017-09-06T00:33:09.763Z,1005.4
2017-09-06T00:34:11.270Z,1005.4
2017-09-06T00:35:12.645Z,1005.5
2017-09-06T00:36:14.055Z,1005.4
2017-09-06T00:37:15.463Z,1005.4
2017-09-06T00:38:16.837Z,1005.4
2017-09-06T00:39:18.215Z,1005.4
2017-09-06T00:40:19.591Z,1005.4
2017-09-06T00:41:21.011Z,1005.4
2017-09-06T00:42:22.389Z,1005.4
2017-09-06T00:43:23.782Z,1005.4
2017-09-06T00:44:25.164Z,1005.4
2017-09-06T00:45:26.533Z,1005.4
2017-09-06T00:46:28.019Z,1005.3
2017-09-06T00:47:29.388Z,1005.4
2017-09-06T00:48:30.764Z,1005.4
2017-09-06T00:49:32.184Z,1005.3
2017-09-06T00:50:33.639Z,1005.3
2017-09-06T00:51:35.045Z,1005.3
2017-09-06T00:52:36.425Z,1005.3
2017-09-06T00:53:37.796Z,1005.3
2017-09-06T00:54:39.275Z,1005.3
2017-09-06T00:55:40.653Z,1005.3
2017-09-06T00:56:42.023Z,1005.3
2017-09-06T00:57:43.453Z,1005.3
2017-09-06T00:58:44.827Z,1005.3
2017-09-06T00:59:46.208Z,1005.2
2017-09-06T01:00:47.593Z,1005.3
2017-09-06T01:01:48.968Z,1005.2
2017-09-06T01:02:50.346Z,1005.2
2017-09-06T01:03:51.725Z,1005.2
2017-09-06T01:04:53.113Z,1005.3
2017-09-06T01:05:54.492Z,1005.3
2017-09-06T01:06:55.866Z,1005.3
2017-09-06T01:07:57.245Z,1005.2
2017-09-06T01:08:58.682Z,1005.2
2017-09-06T01:10:00.246Z,1005.2
2017-09-06T01:11:02.065Z,1005.2
2017-09-06T01:12:03.832Z,1005.3
2017-09-06T01:13:05.406Z,1005.2
2017-09-06T01:14:07.104Z,1005.2
2017-09-06T01:15:08.731Z,1005.1
2017-09-06T01:16:10.160Z,1005.1
2017-09-06T01:17:11.559Z,1005.1
2017-09-06T01:18:12.930Z,1005.2
2017-09-06T01:19:14.340Z,1005.1
2017-09-06T01:20:15.787Z,1005.1
2017-09-06T01:21:17.153Z,1005.1
2017-09-06T01:22:18.581Z,1005.1
2017-09-06T01:23:19.984Z,1005.1
2017-09-06T01:24:21.399Z,1005.1
2017-09-06T01:25:22.834Z,1005.1
2017-09-06T01:26:24.212Z,1005.1
2017-09-06T01:27:25.620Z,1005.1
2017-09-06T01:28:27.052Z,1005.1
2017-09-06T01:29:28.447Z,1005.1
2017-09-06T01:30:29.854Z,1005.1
2017-09-06T01:31:31.510Z,1005.1
2017-09-06T01:32:33.202Z,1005.1
2017-09-06T01:33:34.838Z,1005.1
2017-09-06T01:34:36.501Z,1005.0
2017-09-06T01:35:38.173Z,1005.1
2017-09-06T01:36:39.810Z,1005.1
2017-09-06T01:37:41.242Z,1005.1
2017-09-06T01:38:42.609Z,1005.1
2017-09-06T01:39:44.049Z,1005.0
2017-09-06T01:40:45.435Z,1005.1
2017-09-06T01:41:46.852Z,1005.1
2017-09-06T01:42:48.243Z,1005.0
2017-09-06T01:43:49.617Z,1005.1
2017-09-06T01:44:50.989Z,1005.0
2017-09-06T01:45:52.364Z,1005.0
2017-09-06T01:46:53.740Z,1005.0
2017-09-06T01:47:55.115Z,1005.0
2017-09-06T01:48:56.489Z,1005.1
2017-09-06T01:49:57.864Z,1005.0
2017-09-06T01:50:59.250Z,1005.0
2017-09-06T01:52:00.637Z,1005.1
2017-09-06T01:53:02.031Z,1005.1
2017-09-06T01:54:03.501Z,1005.0
2017-09-06T01:55:04.883Z,1005.0
2017-09-06T01:56:06.713Z,1005.0
2017-09-06T01:57:08.775Z,1005.0
2017-09-06T01:58:10.244Z,1005.0
2017-09-06T01:59:11.619Z,1005.0
2017-09-06T02:00:12.993Z,1005.0
2017-09-06T02:01:14.364Z,1005.0
2017-09-06T02:02:15.749Z,1005.0
2017-09-06T02:03:17.127Z,1005.0
2017-09-06T02:04:18.596Z,1005.0
2017-09-06T02:05:20.005Z,1005.0
2017-09-06T02:06:21.394Z,1005.0
2017-09-06T02:07:22.815Z,1004.9
2017-09-06T02:08:24.200Z,1004.9
2017-09-06T02:09:25.635Z,1004.9
2017-09-06T02:10:27.069Z,1004.9
2017-09-06T02:11:28.452Z,1005.0
2017-09-06T02:12:29.860Z,1004.9
2017-09-06T02:13:31.251Z,1004.9
2017-09-06T02:14:32.662Z,1004.9
2017-09-06T02:15:34.108Z,1004.9
2017-09-06T02:16:35.490Z,1004.9
2017-09-06T02:17:36.864Z,1004.9
2017-09-06T02:18:38.246Z,1004.9
2017-09-06T02:19:39.620Z,1004.9
2017-09-06T02:20:41.083Z,1004.9
2017-09-06T02:21:42.490Z,1004.9
2017-09-06T02:22:43.926Z,1004.8
2017-09-06T02:23:45.348Z,1004.8
2017-09-06T02:24:46.775Z,1004.8
2017-09-06T02:25:48.148Z,1004.7
2017-09-06T02:26:49.551Z,1004.7
2017-09-06T02:27:50.916Z,1004.7
2017-09-06T02:28:52.364Z,1004.6
2017-09-06T02:29:53.810Z,1004.7
2017-09-06T02:30:55.283Z,1004.6
2017-09-06T02:31:56.649Z,1004.6
2017-09-06T02:32:58.044Z,1004.5
2017-09-06T02:33:59.419Z,1004.5
2017-09-06T02:35:00.798Z,1004.6
2017-09-06T02:36:02.225Z,1004.5
2017-09-06T02:37:03.612Z,1004.5
2017-09-06T02:38:04.988Z,1004.5
2017-09-06T02:39:06.540Z,1004.5
2017-09-06T02:40:07.914Z,1004.5
2017-09-06T02:41:09.455Z,1004.5
2017-09-06T02:42:10.820Z,1004.4
2017-09-06T02:43:12.222Z,1004.4
2017-09-06T02:44:13.769Z,1004.4
2017-09-06T02:45:15.159Z,1004.4
2017-09-06T02:46:16.566Z,1004.4
2017-09-06T02:47:18.008Z,1004.3
2017-09-06T02:48:19.444Z,1004.3
2017-09-06T02:49:20.870Z,1004.3
2017-09-06T02:50:22.248Z,1004.3
2017-09-06T02:51:23.629Z,1004.3
2017-09-06T02:52:24.997Z,1004.3
2017-09-06T02:53:26.378Z,1004.3
2017-09-06T02:54:27.757Z,1004.3
2017-09-06T02:55:29.132Z,1004.3
2017-09-06T02:56:30.508Z,1004.2
2017-09-06T02:57:31.921Z,1004.3
2017-09-06T02:58:33.293Z,1004.2
2017-09-06T02:59:34.746Z,1004.3
2017-09-06T03:00:36.175Z,1004.2
2017-09-06T03:01:37.539Z,1004.2
2017-09-06T03:02:38.972Z,1004.2
2017-09-06T03:03:40.399Z,1004.3
2017-09-06T03:04:41.816Z,1004.2
2017-09-06T03:05:43.228Z,1004.2
2017-09-06T03:06:44.631Z,1004.2
2017-09-06T03:07:46.059Z,1004.2
2017-09-06T03:08:47.499Z,1004.2
2017-09-06T03:09:48.954Z,1004.2
2017-09-06T03:10:50.332Z,1004.2
2017-09-06T03:11:51.753Z,1004.2
2017-09-06T03:12:53.110Z,1004.2
2017-09-06T03:13:54.621Z,1004.2
2017-09-06T03:14:56.027Z,1004.2
2017-09-06T03:15:57.502Z,1004.1
2017-09-06T03:16:58.998Z,1004.1
2017-09-06T03:18:00.375Z,1004.1
2017-09-06T03:19:01.790Z,1004.1
2017-09-06T03:20:03.154Z,1004.1
2017-09-06T03:21:04.620Z,1004.1
2017-09-06T03:22:06.044Z,1004.0
2017-09-06T03:23:07.420Z,1004.0
2017-09-06T03:24:08.911Z,1004.1
2017-09-06T03:25:10.296Z,1004.0
2017-09-06T03:26:11.708Z,1004.0
2017-09-06T03:27:13.083Z,1004.0
2017-09-06T03:28:14.591Z,1004.0
2017-09-06T03:29:16.073Z,1004.0
2017-09-06T03:30:17.485Z,1004.0
2017-09-06T03:31:18.858Z,1003.9
2017-09-06T03:32:20.232Z,1003.9
2017-09-06T03:33:21.608Z,1003.9
2017-09-06T03:34:22.985Z,1003.9
2017-09-06T03:35:24.365Z,1004.0
2017-09-06T03:36:25.741Z,1003.9
2017-09-06T03:37:27.115Z,1003.9
2017-09-06T03:38:28.492Z,1003.9
2017-09-06T03:39:29.869Z,1003.9
2017-09-06T03:40:31.249Z,1003.9
2017-09-06T03:41:32.622Z,1004.0
2017-09-06T03:42:34.023Z,1003.9
2017-09-06T03:43:35.411Z,1003.9
2017-09-06T03:44:36.797Z,1003.9
2017-09-06T03:45:38.171Z,1003.9
2017-09-06T03:46:39.572Z,1003.9
2017-09-06T03:47:40.965Z,1003.9
2017-09-06T03:48:42.339Z,1003.8
2017-09-06T03:49:43.738Z,1003.8
2017-09-06T03:50:45.115Z,1003.9
2017-09-06T03:51:46.491Z,1003.8
2017-09-06T03:52:47.866Z,1003.9
2017-09-06T03:53:49.321Z,1003.8
2017-09-06T03:54:50.715Z,1003.8
2017-09-06T03:55:52.081Z,1003.8
2017-09-06T03:56:53.470Z,1003.8
2017-09-06T03:57:54.839Z,1003.8
2017-09-06T03:58:56.554Z,1003.8
2017-09-06T03:59:57.971Z,1003.8
2017-09-06T04:00:59.365Z,1003.8
2017-09-06T04:02:00.739Z,1003.8
2017-09-06T04:03:02.105Z,1003.8
2017-09-06T04:04:03.544Z,1003.7
2017-09-06T04:05:04.973Z,1003.7
2017-09-06T04:06:06.344Z,1003.7
2017-09-06T04:07:07.725Z,1003.7
2017-09-06T04:08:09.133Z,1003.7
2017-09-06T04:09:10.509Z,1003.7
2017-09-06T04:10:11.884Z,1003.7
2017-09-06T04:11:13.266Z,1003.7
2017-09-06T04:12:14.648Z,1003.7
2017-09-06T04:13:16.028Z,1003.6
2017-09-06T04:14:17.405Z,1003.7
2017-09-06T04:15:18.865Z,1003.6
2017-09-06T04:16:20.288Z,1003.7
2017-09-06T04:17:21.740Z,1003.6
2017-09-06T04:18:23.686Z,1003.6
2017-09-06T04:19:25.397Z,1003.6
2017-09-06T04:20:27.019Z,1003.6
2017-09-06T04:21:29.167Z,1003.6
2017-09-06T04:22:30.802Z,1003.6
2017-09-06T04:23:32.720Z,1003.6
2017-09-06T04:24:34.333Z,1003.6
2017-09-06T04:25:36.087Z,1003.5
2017-09-06T04:26:37.749Z,1003.6
2017-09-06T04:27:39.221Z,1003.6
2017-09-06T04:28:40.604Z,1003.6
2017-09-06T04:29:42.009Z,1003.6
2017-09-06T04:30:43.444Z,1003.6
2017-09-06T04:31:44.855Z,1003.6
2017-09-06T04:32:46.235Z,1003.6
2017-09-06T04:33:47.674Z,1003.6
2017-09-06T04:34:49.121Z,1003.6
2017-09-06T04:35:50.542Z,1003.5
2017-09-06T04:36:51.935Z,1003.5
2017-09-06T04:37:53.306Z,1003.5
2017-09-06T04:38:54.738Z,1003.4
2017-09-06T04:39:56.122Z,1003.4
2017-09-06T04:40:57.560Z,1003.5
2017-09-06T04:41:58.952Z,1003.4
2017-09-06T04:43:00.393Z,1003.4
2017-09-06T04:44:01.810Z,1003.5
2017-09-06T04:45:03.180Z,1003.4
2017-09-06T04:46:04.580Z,1003.5
2017-09-06T04:47:05.998Z,1003.5
2017-09-06T04:48:07.460Z,1003.5
2017-09-06T04:49:08.843Z,1003.5
2017-09-06T04:50:10.339Z,1003.5
2017-09-06T04:51:11.754Z,1003.4
2017-09-06T04:52:13.137Z,1003.4
2017-09-06T04:53:14.559Z,1003.4
2017-09-06T04:54:15.937Z,1003.4
2017-09-06T04:55:17.321Z,1003.4
2017-09-06T04:56:18.724Z,1003.4
2017-09-06T04:57:20.102Z,1003.4
2017-09-06T04:58:21.535Z,1003.4
2017-09-06T04:59:22.941Z,1003.4
2017-09-06T05:00:24.332Z,1003.4
2017-09-06T05:01:25.713Z,1003.4
2017-09-06T05:02:27.140Z,1003.4
2017-09-06T05:03:28.529Z,1003.4
2017-09-06T05:04:29.921Z,1003.3
2017-09-06T05:05:31.333Z,1003.3
2017-09-06T05:06:32.725Z,1003.3
2017-09-06T05:07:34.119Z,1003.3
2017-09-06T05:08:35.495Z,1003.3
2017-09-06T05:09:36.936Z,1003.3
2017-09-06T05:10:38.319Z,1003.3
2017-09-06T05:11:39.727Z,1003.3
2017-09-06T05:12:41.135Z,1003.3
2017-09-06T05:13:42.504Z,1003.3
2017-09-06T05:14:43.965Z,1003.3
2017-09-06T05:15:45.358Z,1003.3
2017-09-06T05:16:46.777Z,1003.3
2017-09-06T05:17:48.223Z,1003.3
2017-09-06T05:18:49.686Z,1003.3
2017-09-06T05:19:51.053Z,1003.4
2017-09-06T05:20:52.427Z,1003.4
2017-09-06T05:21:53.830Z,1003.4
2017-09-06T05:22:55.206Z,1003.4
2017-09-06T05:23:56.586Z,1003.3
2017-09-06T05:24:57.965Z,1003.4
2017-09-06T05:25:59.349Z,1003.3
2017-09-06T05:27:00.732Z,1003.4
2017-09-06T05:28:02.199Z,1003.4
2017-09-06T05:29:03.599Z,1003.4
2017-09-06T05:30:05.041Z,1003.4
2017-09-06T05:31:06.486Z,1003.4
2017-09-06T05:32:07.887Z,1003.4
2017-09-06T05:33:09.273Z,1003.4
2017-09-06T05:34:10.650Z,1003.4
2017-09-06T05:35:12.069Z,1003.4
2017-09-06T05:36:13.448Z,1003.4
2017-09-06T05:37:14.821Z,1003.5
2017-09-06T05:38:16.223Z,1003.5
2017-09-06T05:39:17.639Z,1003.5
2017-09-06T05:40:19.048Z,1003.5
2017-09-06T05:41:20.469Z,1003.6
2017-09-06T05:42:21.872Z,1003.6
2017-09-06T05:43:23.256Z,1003.6
2017-09-06T05:44:24.683Z,1003.6
2017-09-06T05:45:26.117Z,1003.5
2017-09-06T05:46:27.581Z,1003.4
2017-09-06T05:47:29.022Z,1003.4
2017-09-06T05:48:30.468Z,1003.5
2017-09-06T05:49:31.872Z,1003.4
2017-09-06T05:50:33.324Z,1003.5
2017-09-06T05:51:34.759Z,1003.6
2017-09-06T05:52:36.138Z,1003.5
2017-09-06T05:53:37.574Z,1003.5
2017-09-06T05:54:39.030Z,1003.6
2017-09-06T05:55:40.411Z,1003.6
2017-09-06T05:56:41.820Z,1003.6
2017-09-06T05:57:43.226Z,1003.6
2017-09-06T05:58:44.755Z,1003.6
2017-09-06T05:59:46.115Z,1003.6
2017-09-06T06:00:47.590Z,1003.6
2017-09-06T06:01:49.046Z,1003.6
2017-09-06T06:02:50.487Z,1003.6
2017-09-06T06:03:51.928Z,1003.6
2017-09-06T06:04:53.327Z,1003.6
2017-09-06T06:05:54.793Z,1003.6
2017-09-06T06:06:56.246Z,1003.7
2017-09-06T06:07:57.629Z,1003.7
2017-09-06T06:08:59.096Z,1003.7
2017-09-06T06:10:00.495Z,1003.7
2017-09-06T06:11:01.899Z,1003.7
2017-09-06T06:12:03.355Z,1003.6
2017-09-06T06:13:04.756Z,1003.7
2017-09-06T06:14:06.149Z,1003.7
2017-09-06T06:15:07.854Z,1003.7
2017-09-06T06:16:09.334Z,1003.7
2017-09-06T06:17:10.770Z,1003.7
2017-09-06T06:18:12.178Z,1003.7
2017-09-06T06:19:13.615Z,1003.8
2017-09-06T06:20:15.013Z,1003.8
2017-09-06T06:21:16.463Z,1003.7
2017-09-06T06:22:17.857Z,1003.6
2017-09-06T06:23:19.672Z,1003.7
2017-09-06T06:24:21.394Z,1003.7
2017-09-06T06:25:23.206Z,1003.7
2017-09-06T06:26:24.856Z,1003.7
2017-09-06T06:27:26.463Z,1003.8
2017-09-06T06:28:27.999Z,1003.9
2017-09-06T06:29:29.523Z,1003.8
2017-09-06T06:30:31.050Z,1003.7
2017-09-06T06:31:32.443Z,1003.7
2017-09-06T06:32:33.877Z,1003.7
2017-09-06T06:33:35.272Z,1003.7
2017-09-06T06:34:36.693Z,1003.7
2017-09-06T06:35:38.149Z,1003.7
2017-09-06T06:36:39.603Z,1003.8
2017-09-06T06:37:41.048Z,1003.6
2017-09-06T06:38:42.449Z,1003.6
2017-09-06T06:39:43.849Z,1003.7
2017-09-06T06:40:45.267Z,1003.7
2017-09-06T06:41:46.715Z,1003.7
2017-09-06T06:42:48.546Z,1003.7
2017-09-06T06:43:50.368Z,1003.7
2017-09-06T06:44:52.023Z,1003.7
2017-09-06T06:45:53.664Z,1003.7
2017-09-06T06:46:55.164Z,1003.7
2017-09-06T06:47:56.631Z,1003.7
2017-09-06T06:48:58.060Z,1003.7
2017-09-06T06:49:59.492Z,1003.7
2017-09-06T06:51:00.917Z,1003.8
2017-09-06T06:52:02.293Z,1003.8
2017-09-06T06:53:03.713Z,1003.8
2017-09-06T06:54:05.115Z,1003.8
2017-09-06T06:55:06.504Z,1003.8
2017-09-06T06:56:07.935Z,1003.8
2017-09-06T06:57:09.360Z,1003.7
2017-09-06T06:58:10.761Z,1003.8
2017-09-06T06:59:12.392Z,1003.8
2017-09-06T07:00:14.166Z,1003.9
2017-09-06T07:01:16.015Z,1004.0
2017-09-06T07:02:17.429Z,1003.9
2017-09-06T07:03:18.867Z,1003.9
2017-09-06T07:04:20.239Z,1003.9
2017-09-06T07:05:21.849Z,1003.9
2017-09-06T07:06:23.371Z,1004.0
2017-09-06T07:07:25.332Z,1004.1
2017-09-06T07:08:27.042Z,1004.1
2017-09-06T07:09:29.107Z,1004.2
2017-09-06T07:10:30.827Z,1004.0
2017-09-06T07:11:32.270Z,1003.9
2017-09-06T07:12:33.792Z,1003.8
2017-09-06T07:13:36.054Z,1003.9
2017-09-06T07:14:37.870Z,1003.9
2017-09-06T07:15:40.132Z,1003.7
2017-09-06T07:16:41.536Z,1003.8
2017-09-06T07:17:43.034Z,1003.8
2017-09-06T07:18:44.456Z,1003.8
2017-09-06T07:19:46.298Z,1003.7
2017-09-06T07:21:28.707Z,1003.8
2017-09-06T07:22:30.099Z,1003.8
2017-09-06T07:23:31.622Z,1003.9
2017-09-06T07:24:34.183Z,1003.9
2017-09-06T07:25:35.532Z,1004.0
2017-09-06T07:26:37.700Z,1003.9
2017-09-06T07:27:39.406Z,1003.9
2017-09-06T07:28:41.055Z,1003.9
2017-09-06T07:29:42.701Z,1003.9
2017-09-06T07:30:44.413Z,1003.8
2017-09-06T07:31:45.964Z,1003.9
2017-09-06T07:32:48.086Z,1004.1
2017-09-06T07:33:49.835Z,1004.0
2017-09-06T07:34:51.253Z,1004.0
2017-09-06T07:35:52.885Z,1003.9
2017-09-06T07:37:35.400Z,1004.0
2017-09-06T07:38:37.173Z,1004.1
2017-09-06T07:39:39.821Z,1004.2
2017-09-06T07:40:41.375Z,1004.4
2017-09-06T07:41:42.844Z,1004.2
2017-09-06T07:42:44.919Z,1004.1
2017-09-06T07:43:46.685Z,1003.9
2017-09-06T07:44:48.225Z,1003.9
2017-09-06T07:45:49.810Z,1004.0
2017-09-06T07:46:51.274Z,1004.0
2017-09-06T07:47:52.749Z,1003.9
2017-09-06T07:48:55.086Z,1004.0
2017-09-06T07:49:56.830Z,1003.9
2017-09-06T07:50:59.000Z,1003.9
2017-09-06T07:52:01.455Z,1003.9
2017-09-06T07:53:44.687Z,1003.9
2017-09-06T07:54:46.110Z,1003.9
2017-09-06T07:55:50.637Z,1004.0
2017-09-06T07:56:52.182Z,1004.0
2017-09-06T07:57:54.545Z,1004.0
2017-09-06T07:58:56.038Z,1003.9
2017-09-06T07:59:57.688Z,1003.9
2017-09-06T08:00:59.326Z,1003.9
2017-09-06T08:02:00.844Z,1004.0
2017-09-06T08:03:02.256Z,1004.0
2017-09-06T08:04:03.958Z,1004.0
2017-09-06T08:05:05.378Z,1003.9
2017-09-06T08:06:06.784Z,1003.9
2017-09-06T08:07:08.208Z,1004.0
2017-09-06T08:08:50.588Z,1004.1
2017-09-06T08:09:51.992Z,1004.0
2017-09-06T08:10:53.877Z,1004.1
2017-09-06T08:11:55.348Z,1004.0
2017-09-06T08:12:56.735Z,1004.1
2017-09-06T08:13:58.166Z,1004.1
2017-09-06T08:14:59.617Z,1004.2
2017-09-06T08:16:01.025Z,1004.1
2017-09-06T08:17:02.479Z,1004.2
2017-09-06T08:18:03.971Z,1004.2
2017-09-06T08:19:05.674Z,1004.1
2017-09-06T08:20:07.065Z,1004.3
2017-09-06T08:21:08.671Z,1004.3
2017-09-06T08:22:10.206Z,1004.2
2017-09-06T08:23:11.853Z,1004.2
2017-09-06T08:24:13.431Z,1004.2
2017-09-06T08:25:15.118Z,1004.3
2017-09-06T08:26:16.601Z,1004.3
2017-09-06T08:27:18.023Z,1004.3
2017-09-06T08:28:19.482Z,1004.4
2017-09-06T08:29:20.897Z,1004.3
2017-09-06T08:30:22.333Z,1004.4
2017-09-06T08:31:23.805Z,1004.5
2017-09-06T08:32:25.216Z,1004.6
2017-09-06T08:33:26.603Z,1004.6
2017-09-06T08:34:28.014Z,1004.6
2017-09-06T08:35:29.409Z,1004.6
2017-09-06T08:36:31.080Z,1004.7
2017-09-06T08:37:32.995Z,1004.6
2017-09-06T08:38:34.626Z,1004.7
2017-09-06T08:39:36.059Z,1004.6
2017-09-06T08:40:37.611Z,1004.6
2017-09-06T08:41:40.218Z,1004.6
2017-09-06T08:42:42.109Z,1004.7
2017-09-06T08:43:43.933Z,1004.7
2017-09-06T08:44:45.880Z,1004.7
2017-09-06T08:45:47.663Z,1004.7
2017-09-06T08:46:49.337Z,1004.7
2017-09-06T08:47:50.975Z,1004.8
2017-09-06T08:48:52.879Z,1004.8
2017-09-06T08:49:54.599Z,1004.8
2017-09-06T08:50:56.427Z,1004.9
2017-09-06T08:51:58.197Z,1004.8
2017-09-06T08:53:00.210Z,1004.9
2017-09-06T08:54:02.093Z,1004.8
2017-09-06T08:55:03.902Z,1004.9
2017-09-06T08:56:05.613Z,1004.9
2017-09-06T08:57:49.374Z,1005.0
2017-09-06T08:58:50.753Z,1004.9
2017-09-06T08:59:52.335Z,1004.9
2017-09-06T09:00:53.766Z,1005.0
2017-09-06T09:01:55.205Z,1005.0
2017-09-06T09:02:57.191Z,1005.1
2017-09-06T09:03:58.892Z,1005.1
2017-09-06T09:05:00.615Z,1005.2
2017-09-06T09:06:02.249Z,1005.1
2017-09-06T09:07:04.000Z,1005.1
2017-09-06T09:08:05.919Z,1005.2
2017-09-06T09:09:07.601Z,1005.1
2017-09-06T09:10:09.010Z,1005.2
2017-09-06T09:11:10.743Z,1005.1
2017-09-06T09:12:12.542Z,1005.2
2017-09-06T09:13:55.421Z,1005.3
2017-09-06T09:14:56.926Z,1005.3
2017-09-06T09:16:20.370Z,1005.4
2017-09-06T09:17:21.705Z,1005.3
2017-09-06T09:18:23.551Z,1005.3
2017-09-06T09:19:25.265Z,1005.4
2017-09-06T09:20:26.932Z,1005.3
2017-09-06T09:21:28.458Z,1005.4
2017-09-06T09:22:30.432Z,1005.4
2017-09-06T09:23:32.532Z,1005.4
2017-09-06T09:24:34.465Z,1005.5
2017-09-06T09:25:36.132Z,1005.6
2017-09-06T09:26:37.708Z,1005.6
2017-09-06T09:27:39.294Z,1005.6
2017-09-06T09:29:24.287Z,1005.6
2017-09-06T09:30:25.770Z,1005.7
2017-09-06T09:31:49.529Z,1005.7
2017-09-06T09:32:51.532Z,1005.8
2017-09-06T09:33:52.862Z,1005.7
2017-09-06T09:34:54.677Z,1005.7
2017-09-06T09:35:56.736Z,1005.7
2017-09-06T09:36:59.008Z,1005.8
2017-09-06T09:38:00.776Z,1005.7
2017-09-06T09:39:02.379Z,1005.6
2017-09-06T09:40:03.901Z,1005.8
2017-09-06T09:41:05.869Z,1005.8
2017-09-06T09:42:08.364Z,1005.8
2017-09-06T09:43:09.964Z,1005.8
2017-09-06T09:44:11.441Z,1005.8
2017-09-06T09:45:13.368Z,1005.9
2017-09-06T09:46:14.911Z,1005.9
2017-09-06T09:47:16.315Z,1005.8
2017-09-06T09:48:17.814Z,1005.9
2017-09-06T09:49:19.386Z,1005.9
2017-09-06T09:50:21.066Z,1006.0
2017-09-06T09:51:23.008Z,1005.9
2017-09-06T09:52:24.839Z,1005.9
2017-09-06T09:53:26.302Z,1005.8
2017-09-06T09:54:27.939Z,1006.0
2017-09-06T09:55:29.875Z,1006.0
2017-09-06T09:56:31.361Z,1006.0
2017-09-06T09:57:33.309Z,1006.1
2017-09-06T09:58:35.345Z,1006.0
2017-09-06T09:59:37.232Z,1006.0
2017-09-06T10:00:38.686Z,1006.0
2017-09-06T10:01:40.272Z,1006.1
2017-09-06T10:02:41.759Z,1006.1
2017-09-06T10:03:43.445Z,1006.0
2017-09-06T10:04:45.629Z,1006.0
2017-09-06T10:05:47.608Z,1006.0
2017-09-06T10:06:49.116Z,1006.0
2017-09-06T10:07:50.941Z,1006.0
2017-09-06T10:08:52.809Z,1006.0
2017-09-06T10:09:54.881Z,1006.0
2017-09-06T10:10:57.219Z,1006.0
2017-09-06T10:11:59.321Z,1006.0
2017-09-06T10:13:00.786Z,1006.0
2017-09-06T10:14:02.855Z,1006.0
2017-09-06T10:15:04.960Z,1006.0
2017-09-06T10:16:06.488Z,1006.0
2017-09-06T10:17:07.935Z,1006.0
2017-09-06T10:18:09.377Z,1006.0
2017-09-06T10:19:10.867Z,1006.1
2017-09-06T10:20:12.809Z,1006.0
2017-09-06T10:21:14.320Z,1005.9
2017-09-06T10:22:15.864Z,1006.0
2017-09-06T10:23:17.626Z,1006.0
2017-09-06T10:24:19.106Z,1006.0
2017-09-06T10:25:20.607Z,1006.0
2017-09-06T10:26:22.555Z,1006.0
2017-09-06T10:27:24.514Z,1006.1
2017-09-06T10:28:26.597Z,1006.1
2017-09-06T10:29:28.112Z,1006.1
2017-09-06T10:30:29.571Z,1006.1
2017-09-06T10:31:31.163Z,1006.1
2017-09-06T10:32:32.621Z,1006.1
2017-09-06T10:34:15.021Z,1006.0
2017-09-06T10:35:16.599Z,1006.1
2017-09-06T10:36:18.498Z,1006.1
2017-09-06T10:37:20.207Z,1006.1
2017-09-06T10:38:22.157Z,1006.2
2017-09-06T10:39:24.320Z,1006.2
2017-09-06T10:40:26.520Z,1006.2
2017-09-06T10:41:28.003Z,1006.2
2017-09-06T10:42:29.761Z,1006.2
2017-09-06T10:43:31.550Z,1006.2
2017-09-06T10:44:33.647Z,1006.2
2017-09-06T10:45:35.865Z,1006.3
2017-09-06T10:46:37.347Z,1006.4
2017-09-06T10:47:38.836Z,1006.4
2017-09-06T10:48:40.425Z,1006.3
2017-09-06T10:49:41.919Z,1006.3
2017-09-06T10:50:43.368Z,1006.3
2017-09-06T10:51:45.019Z,1006.3
2017-09-06T10:52:47.363Z,1006.2
2017-09-06T10:53:49.037Z,1006.3
2017-09-06T10:54:50.829Z,1006.3
2017-09-06T10:55:52.762Z,1006.5
2017-09-06T10:56:54.840Z,1006.5
2017-09-06T10:57:56.519Z,1006.6
2017-09-06T10:58:58.016Z,1006.9
2017-09-06T10:59:59.498Z,1006.9
2017-09-06T11:01:00.995Z,1006.8
2017-09-06T11:02:02.453Z,1006.9
2017-09-06T11:03:03.909Z,1006.6
2017-09-06T11:04:05.459Z,1006.5
2017-09-06T11:05:07.385Z,1006.6
2017-09-06T11:06:08.842Z,1006.5
2017-09-06T11:07:10.322Z,1006.4
2017-09-06T11:08:11.829Z,1006.4
2017-09-06T11:09:13.863Z,1006.4
2017-09-06T11:10:15.415Z,1006.4
2017-09-06T11:11:16.870Z,1006.5
2017-09-06T11:12:18.315Z,1006.5
2017-09-06T11:13:19.741Z,1006.4
2017-09-06T11:14:21.436Z,1006.5
2017-09-06T11:15:23.153Z,1006.4
2017-09-06T11:16:24.647Z,1006.4
2017-09-06T11:17:26.060Z,1006.4
2017-09-06T11:18:27.960Z,1006.5
2017-09-06T11:19:30.209Z,1006.5
2017-09-06T11:20:32.376Z,1006.5
2017-09-06T11:21:33.963Z,1006.5
2017-09-06T11:22:35.828Z,1006.5
2017-09-06T11:23:38.088Z,1006.6
2017-09-06T11:24:40.612Z,1006.7
2017-09-06T11:25:43.179Z,1006.6
2017-09-06T11:26:45.792Z,1006.5
2017-09-06T11:27:47.156Z,1006.6
2017-09-06T11:28:48.620Z,1006.7
2017-09-06T11:29:50.050Z,1006.5
2017-09-06T11:30:52.305Z,1006.4
2017-09-06T11:31:53.748Z,1006.4
2017-09-06T11:32:55.213Z,1006.3
2017-09-06T11:33:56.667Z,1006.3
2017-09-06T11:34:58.112Z,1006.4
2017-09-06T11:35:59.490Z,1006.4
2017-09-06T11:37:00.903Z,1006.4
2017-09-06T11:38:02.363Z,1006.4
2017-09-06T11:39:03.859Z,1006.5
2017-09-06T11:40:05.303Z,1006.6
2017-09-06T11:41:07.264Z,1006.7
2017-09-06T11:42:08.768Z,1006.6
2017-09-06T11:43:10.845Z,1006.7
2017-09-06T11:44:13.023Z,1006.7
2017-09-06T11:45:15.249Z,1006.6
2017-09-06T11:46:16.742Z,1006.6
2017-09-06T11:47:18.594Z,1006.6
2017-09-06T11:48:20.462Z,1006.5
2017-09-06T11:49:21.913Z,1006.6
2017-09-06T11:50:23.341Z,1006.7
2017-09-06T11:51:25.429Z,1006.6
2017-09-06T11:52:27.450Z,1006.5
2017-09-06T11:53:29.044Z,1006.7
2017-09-06T11:54:30.702Z,1006.7
2017-09-06T11:55:32.142Z,1006.5
2017-09-06T11:56:33.553Z,1006.5
2017-09-06T11:57:35.050Z,1006.6
2017-09-06T11:58:36.435Z,1006.4
2017-09-06T11:59:37.865Z,1006.7
2017-09-06T12:00:39.259Z,1006.5
2017-09-06T12:01:40.661Z,1006.7
2017-09-06T12:02:42.056Z,1006.6
2017-09-06T12:03:43.463Z,1006.5
2017-09-06T12:04:44.906Z,1006.5
2017-09-06T12:05:46.516Z,1006.4
2017-09-06T12:06:47.993Z,1006.5
2017-09-06T12:07:49.476Z,1006.5
2017-09-06T12:08:50.910Z,1006.5
2017-09-06T12:09:52.293Z,1006.6
2017-09-06T12:10:53.698Z,1006.6
2017-09-06T12:11:55.157Z,1006.5
2017-09-06T12:12:56.615Z,1006.6
2017-09-06T12:13:58.004Z,1006.5
2017-09-06T12:14:59.450Z,1006.4
2017-09-06T12:16:01.036Z,1006.4
2017-09-06T12:17:02.479Z,1006.4
2017-09-06T12:18:03.859Z,1006.4
2017-09-06T12:19:05.306Z,1006.4
2017-09-06T12:20:06.796Z,1006.4
2017-09-06T12:21:08.258Z,1006.4
2017-09-06T12:22:09.729Z,1006.4
2017-09-06T12:23:11.124Z,1006.4
2017-09-06T12:24:12.560Z,1006.4
2017-09-06T12:25:13.964Z,1006.4
2017-09-06T12:26:15.479Z,1006.5
2017-09-06T12:27:16.930Z,1006.4
2017-09-06T12:28:18.535Z,1006.5
2017-09-06T12:29:20.002Z,1006.5
2017-09-06T12:30:21.436Z,1006.4
2017-09-06T12:31:23.244Z,1006.5
2017-09-06T12:32:24.872Z,1006.6
2017-09-06T12:33:26.920Z,1006.4
2017-09-06T12:34:28.331Z,1006.4
2017-09-06T12:35:29.735Z,1006.5
2017-09-06T12:36:31.189Z,1006.5
2017-09-06T12:37:32.567Z,1006.5
2017-09-06T12:38:33.967Z,1006.7
2017-09-06T12:39:35.559Z,1006.8
2017-09-06T12:40:37.005Z,1006.7
2017-09-06T12:41:38.409Z,1006.8
2017-09-06T12:42:39.899Z,1006.8
2017-09-06T12:43:41.341Z,1006.6
2017-09-06T12:44:42.750Z,1006.6
2017-09-06T12:45:44.137Z,1006.8
2017-09-06T12:46:45.663Z,1006.9
2017-09-06T12:47:47.112Z,1006.5
2017-09-06T12:48:49.045Z,1006.6
2017-09-06T12:49:50.601Z,1006.6
2017-09-06T12:50:52.109Z,1006.6
2017-09-06T12:51:53.511Z,1006.7
2017-09-06T12:52:54.920Z,1006.7
2017-09-06T12:53:56.496Z,1006.7